createdAt,value
2018-09-13T00:00:27.469Z,12.30
2018-09-13T00:02:34.688Z,10.90
2018-09-13T00:04:39.704Z,11.17
2018-09-13T00:06:43.538Z,11.73
2018-09-13T00:08:47.422Z,12.47
2018-09-13T00:10:52.408Z,12.40
2018-09-13T00:12:57.375Z,12.93
2018-09-13T00:15:01.187Z,12.63
2018-09-13T00:17:05.102Z,12.33
2018-09-13T00:19:08.980Z,11.47
2018-09-13T00:21:12.785Z,11.40
2018-09-13T00:23:16.727Z,10.53
2018-09-13T00:25:20.584Z,12.47
2018-09-13T00:27:24.433Z,12.20
2018-09-13T00:29:28.224Z,12.00
2018-09-13T00:31:32.038Z,11.50
2018-09-13T00:33:41.120Z,11.50
2018-09-13T00:35:45.170Z,12.00
2018-09-13T00:37:49.093Z,11.60
2018-09-13T00:39:52.990Z,10.90
2018-09-13T00:41:56.831Z,12.20
2018-09-13T00:44:00.719Z,11.37
2018-09-13T00:46:04.506Z,11.80
2018-09-13T00:48:09.089Z,14.77
2018-09-13T00:50:14.004Z,14.57
2018-09-13T00:52:17.781Z,13.80
2018-09-13T00:54:21.731Z,12.97
2018-09-13T00:56:25.513Z,13.00
2018-09-13T00:58:29.358Z,12.90
2018-09-13T01:00:33.202Z,14.03
2018-09-13T01:02:39.033Z,13.93
2018-09-13T01:04:43.016Z,13.47
2018-09-13T01:06:47.262Z,13.50
2018-09-13T01:08:51.194Z,13.70
2018-09-13T01:10:55.329Z,14.77
2018-09-13T01:12:59.196Z,14.30
2018-09-13T01:15:03.024Z,13.43
2018-09-13T01:17:06.781Z,14.20
2018-09-13T01:19:10.755Z,12.20
2018-09-13T01:21:14.554Z,12.97
2018-09-13T01:23:18.429Z,12.80
2018-09-13T01:25:32.398Z,12.53
2018-09-13T01:27:36.205Z,11.30
2018-09-13T01:29:40.169Z,11.20
2018-09-13T01:31:44.488Z,12.33
2018-09-13T01:33:51.998Z,11.60
2018-09-13T01:35:55.784Z,11.10
2018-09-13T01:37:59.635Z,11.20
2018-09-13T01:40:03.516Z,11.10
2018-09-13T01:42:09.393Z,11.67
2018-09-13T01:44:13.304Z,10.97
2018-09-13T01:46:17.060Z,11.10
2018-09-13T01:48:20.952Z,10.17
2018-09-13T01:50:25.027Z,11.03
2018-09-13T01:52:28.893Z,13.10
2018-09-13T01:54:32.726Z,12.73
2018-09-13T01:56:40.627Z,12.23
2018-09-13T01:58:44.535Z,13.10
2018-09-13T02:00:48.406Z,12.10
2018-09-13T02:02:52.343Z,13.43
2018-09-13T02:04:56.204Z,12.50
2018-09-13T02:07:00.024Z,12.50
2018-09-13T02:09:04.600Z,12.10
2018-09-13T02:11:09.793Z,12.80
2018-09-13T02:13:13.690Z,13.50
2018-09-13T02:15:17.477Z,13.67
2018-09-13T02:17:21.410Z,14.90
2018-09-13T02:19:25.254Z,14.27
2018-09-13T02:21:29.031Z,14.30
2018-09-13T02:23:32.847Z,14.13
2018-09-13T02:25:36.713Z,16.83
2018-09-13T02:27:40.504Z,16.43
2018-09-13T02:29:44.310Z,16.60
2018-09-13T02:31:48.083Z,16.00
2018-09-13T02:33:51.913Z,14.90
2018-09-13T02:35:56.859Z,14.87
2018-09-13T02:38:00.764Z,15.80
2018-09-13T02:40:04.983Z,15.70
2018-09-13T02:42:08.942Z,14.77
2018-09-13T02:44:12.849Z,14.30
2018-09-13T02:46:16.647Z,14.47
2018-09-13T02:48:20.889Z,14.90
2018-09-13T02:50:24.799Z,13.70
2018-09-13T02:52:28.570Z,14.63
2018-09-13T02:54:32.568Z,14.17
2018-09-13T02:56:36.832Z,14.17
2018-09-13T02:58:40.581Z,15.87
2018-09-13T03:00:44.954Z,15.17
2018-09-13T03:02:52.641Z,14.40
2018-09-13T03:04:59.010Z,15.80
2018-09-13T03:07:03.139Z,14.50
2018-09-13T03:09:10.639Z,14.60
2018-09-13T03:11:14.670Z,14.73
2018-09-13T03:13:18.444Z,17.07
2018-09-13T03:15:22.315Z,15.07
2018-09-13T03:17:26.118Z,16.40
2018-09-13T03:19:29.944Z,15.03
2018-09-13T03:21:33.754Z,14.10
2018-09-13T03:23:38.552Z,17.80
2018-09-13T03:25:42.988Z,18.47
2018-09-13T03:27:46.874Z,17.80
2018-09-13T03:29:50.846Z,17.53
2018-09-13T03:31:54.655Z,17.40
2018-09-13T03:33:58.547Z,17.57
2018-09-13T03:36:02.459Z,17.47
2018-09-13T03:38:07.881Z,16.77
2018-09-13T03:40:11.809Z,15.10
2018-09-13T03:42:15.652Z,13.97
2018-09-13T03:44:19.449Z,14.20
2018-09-13T03:46:23.312Z,14.53
2018-09-13T03:48:27.210Z,16.97
2018-09-13T03:50:34.352Z,14.53
2018-09-13T03:52:38.773Z,13.37
2018-09-13T03:54:42.594Z,15.47
2018-09-13T03:56:46.539Z,14.33
2018-09-13T03:58:50.402Z,17.53
2018-09-13T04:00:54.299Z,17.27
2018-09-13T04:02:58.184Z,16.70
2018-09-13T04:05:02.020Z,19.20
2018-09-13T04:07:06.328Z,19.13
2018-09-13T04:09:11.666Z,16.87
2018-09-13T04:11:25.333Z,18.20
2018-09-13T04:13:29.194Z,19.73
2018-09-13T04:15:36.058Z,19.10
2018-09-13T04:17:39.994Z,21.70
2018-09-13T04:19:46.075Z,21.40
2018-09-13T04:21:50.279Z,22.40
2018-09-13T04:23:56.148Z,22.33
2018-09-13T04:26:02.252Z,22.10
2018-09-13T04:28:06.089Z,20.40
2018-09-13T04:30:10.198Z,21.73
2018-09-13T04:32:14.064Z,20.67
2018-09-13T04:34:17.855Z,21.20
2018-09-13T04:36:21.693Z,22.93
2018-09-13T04:38:32.873Z,24.43
2018-09-13T04:40:41.298Z,22.13
2018-09-13T04:42:45.361Z,21.73
2018-09-13T04:44:49.219Z,20.50
2018-09-13T04:46:53.121Z,22.40
2018-09-13T04:48:57.028Z,20.93
2018-09-13T04:51:01.062Z,20.23
2018-09-13T04:53:04.998Z,19.57
2018-09-13T04:55:33.653Z,19.40
2018-09-13T04:57:38.390Z,20.03
2018-09-13T04:59:42.425Z,21.77
2018-09-13T05:01:46.316Z,21.83
2018-09-13T05:03:50.135Z,19.27
2018-09-13T05:05:53.969Z,23.03
2018-09-13T05:07:58.009Z,22.20
2018-09-13T05:10:01.969Z,22.90
2018-09-13T05:12:05.993Z,23.80
2018-09-13T05:14:09.834Z,22.13
2018-09-13T05:16:13.768Z,20.67
2018-09-13T05:18:17.674Z,22.17
2018-09-13T05:20:21.525Z,22.20
2018-09-13T05:22:25.495Z,21.97
2018-09-13T05:24:29.365Z,22.00
2018-09-13T05:26:35.754Z,21.10
2018-09-13T05:28:39.556Z,21.23
2018-09-13T05:30:43.511Z,22.93
2018-09-13T05:32:47.412Z,21.73
2018-09-13T05:34:51.286Z,21.47
2018-09-13T05:36:55.127Z,21.23
2018-09-13T05:38:59.042Z,20.80
2018-09-13T05:41:03.194Z,20.70
2018-09-13T05:43:07.196Z,22.10
2018-09-13T05:45:11.073Z,20.60
2018-09-13T05:47:15.114Z,22.10
2018-09-13T05:49:18.965Z,23.87
2018-09-13T05:51:22.840Z,21.73
2018-09-13T05:53:26.685Z,26.40
2018-09-13T05:55:30.891Z,25.40
2018-09-13T05:57:34.814Z,25.90
2018-09-13T05:59:38.749Z,23.20
2018-09-13T06:01:42.744Z,23.77
2018-09-13T06:03:46.798Z,24.07
2018-09-13T06:05:50.801Z,25.20
2018-09-13T06:07:54.706Z,24.73
2018-09-13T06:09:58.576Z,24.53
2018-09-13T06:12:02.466Z,24.60
2018-09-13T06:14:06.481Z,26.10
2018-09-13T06:16:10.395Z,29.13
2018-09-13T06:18:14.442Z,22.93
2018-09-13T06:20:18.319Z,24.30
2018-09-13T06:22:22.257Z,24.30
2018-09-13T06:24:26.113Z,21.67
2018-09-13T06:26:30.022Z,23.60
2018-09-13T06:28:33.862Z,24.57
2018-09-13T06:30:37.696Z,22.67
2018-09-13T06:32:41.564Z,24.50
2018-09-13T06:34:45.503Z,23.47
2018-09-13T06:36:49.327Z,24.07
2018-09-13T06:38:53.218Z,28.33
2018-09-13T06:40:57.049Z,23.07
2018-09-13T06:43:00.969Z,24.67
2018-09-13T06:45:05.070Z,24.23
2018-09-13T06:47:08.963Z,25.33
2018-09-13T06:49:12.955Z,26.47
2018-09-13T06:51:17.941Z,26.17
2018-09-13T06:53:21.763Z,25.83
2018-09-13T06:55:25.635Z,28.17
2018-09-13T06:57:29.534Z,25.50
2018-09-13T06:59:33.445Z,23.30
2018-09-13T07:01:37.304Z,28.80
2018-09-13T07:03:41.198Z,26.97
2018-09-13T07:05:44.997Z,25.53
2018-09-13T07:07:48.947Z,26.60
2018-09-13T07:09:52.735Z,24.30
2018-09-13T07:11:56.711Z,27.00
2018-09-13T07:14:00.479Z,27.03
2018-09-13T07:16:04.283Z,24.97
2018-09-13T07:18:08.317Z,23.90
2018-09-13T07:20:12.164Z,27.43
2018-09-13T07:22:15.973Z,25.43
2018-09-13T07:24:19.794Z,26.80
2018-09-13T07:26:23.588Z,27.23
2018-09-13T07:28:27.407Z,24.77
2018-09-13T07:30:31.224Z,25.60
2018-09-13T07:32:35.114Z,26.17
2018-09-13T07:34:39.677Z,23.40
2018-09-13T07:36:43.570Z,24.50
2018-09-13T07:38:47.396Z,23.47
2018-09-13T07:40:51.216Z,22.20
2018-09-13T07:42:56.242Z,22.03
2018-09-13T07:45:00.108Z,25.97
2018-09-13T07:47:04.059Z,24.60
2018-09-13T07:49:08.693Z,26.03
2018-09-13T07:51:12.517Z,23.00
2018-09-13T07:53:16.417Z,23.07
2018-09-13T07:55:20.242Z,21.90
2018-09-13T07:57:24.194Z,21.93
2018-09-13T07:59:28.156Z,19.83
2018-09-13T08:01:32.026Z,20.60
2018-09-13T08:03:36.656Z,19.73
2018-09-13T08:05:40.589Z,21.40
2018-09-13T08:07:44.387Z,21.80
2018-09-13T08:09:48.228Z,18.67
2018-09-13T08:11:52.133Z,20.43
2018-09-13T08:13:55.922Z,20.73
2018-09-13T08:15:59.760Z,18.90
2018-09-13T08:18:05.423Z,18.57
2018-09-13T08:20:09.305Z,18.90
2018-09-13T08:22:13.239Z,18.00
2018-09-13T08:24:17.082Z,19.40
2018-09-13T08:26:20.978Z,19.17
2018-09-13T08:28:24.849Z,18.60
2018-09-13T08:30:28.742Z,17.00
2018-09-13T08:32:35.752Z,16.83
2018-09-13T08:34:39.652Z,18.10
2018-09-13T08:36:43.456Z,17.60
2018-09-13T08:38:47.366Z,16.27
2018-09-13T08:40:51.336Z,20.10
2018-09-13T08:42:55.268Z,17.63
2018-09-13T08:44:59.126Z,19.07
2018-09-13T08:47:03.156Z,18.53
2018-09-13T08:49:07.019Z,19.53
2018-09-13T08:51:10.865Z,18.00
2018-09-13T08:53:15.181Z,19.70
2018-09-13T08:55:19.103Z,17.80
2018-09-13T08:57:23.018Z,16.47
2018-09-13T08:59:26.990Z,16.50
2018-09-13T09:01:30.943Z,15.47
2018-09-13T09:03:34.792Z,16.87
2018-09-13T09:05:38.623Z,15.70
2018-09-13T09:07:42.518Z,15.70
2018-09-13T09:09:46.445Z,16.30
2018-09-13T09:11:50.429Z,15.60
2018-09-13T09:13:54.424Z,14.93
2018-09-13T09:15:58.547Z,15.17
2018-09-13T09:18:02.425Z,16.40
2018-09-13T09:20:06.984Z,14.83
2018-09-13T09:22:10.952Z,15.53
2018-09-13T09:24:14.817Z,13.73
2018-09-13T09:26:18.734Z,15.50
2018-09-13T09:28:22.595Z,17.23
2018-09-13T09:30:26.867Z,14.60
2018-09-13T09:32:30.638Z,14.20
2018-09-13T09:34:35.486Z,13.90
2018-09-13T09:36:39.212Z,14.57
2018-09-13T09:38:43.021Z,14.03
2018-09-13T09:40:46.830Z,12.23
2018-09-13T09:42:50.644Z,15.50
2018-09-13T09:44:54.488Z,13.20
2018-09-13T09:46:58.300Z,14.50
2018-09-13T09:49:02.154Z,15.00
2018-09-13T09:51:06.013Z,15.10
2018-09-13T09:53:09.882Z,15.00
2018-09-13T09:55:13.714Z,15.83
2018-09-13T09:57:17.523Z,14.43
2018-09-13T09:59:21.415Z,14.83
2018-09-13T10:01:30.433Z,15.50
2018-09-13T10:03:34.400Z,15.43
2018-09-13T10:05:48.794Z,13.77
2018-09-13T10:07:52.700Z,14.37
2018-09-13T10:09:56.603Z,13.77
2018-09-13T10:12:00.498Z,13.80
2018-09-13T10:14:04.856Z,14.20
2018-09-13T10:16:14.023Z,14.30
2018-09-13T10:18:23.208Z,14.73
2018-09-13T10:20:32.642Z,13.43
2018-09-13T10:22:41.765Z,12.97
2018-09-13T10:24:50.903Z,15.17
2018-09-13T10:27:00.073Z,14.10
2018-09-13T10:29:09.247Z,13.80
2018-09-13T10:31:18.211Z,13.23
2018-09-13T10:33:27.226Z,14.30
2018-09-13T10:35:37.827Z,13.57
2018-09-13T10:37:47.002Z,13.40
2018-09-13T10:39:56.221Z,13.43
2018-09-13T10:42:05.326Z,13.63
2018-09-13T10:44:14.496Z,13.77
2018-09-13T10:46:25.475Z,12.33
2018-09-13T10:48:35.001Z,11.90
2018-09-13T10:50:52.515Z,11.77
2018-09-13T10:53:09.415Z,12.23
2018-09-13T10:55:13.599Z,11.67
2018-09-13T10:57:22.837Z,13.17
2018-09-13T10:59:26.686Z,12.40
2018-09-13T11:01:30.485Z,12.77
2018-09-13T11:03:34.385Z,12.37
2018-09-13T11:05:38.646Z,13.13
2018-09-13T11:07:44.085Z,13.40
2018-09-13T11:09:49.674Z,11.83
2018-09-13T11:11:53.512Z,11.60
2018-09-13T11:14:03.589Z,11.70
2018-09-13T11:16:07.854Z,13.83
2018-09-13T11:18:13.854Z,13.00
2018-09-13T11:20:23.773Z,10.77
2018-09-13T11:22:27.636Z,11.93
2018-09-13T11:24:31.683Z,12.57
2018-09-13T11:26:35.587Z,11.20
2018-09-13T11:28:39.548Z,10.90
2018-09-13T11:30:43.530Z,12.60
2018-09-13T11:32:47.335Z,11.37
2018-09-13T11:34:51.221Z,10.70
2018-09-13T11:36:55.102Z,11.50
2018-09-13T11:38:58.899Z,10.40
2018-09-13T11:41:03.636Z,10.40
2018-09-13T11:43:07.388Z,10.43
2018-09-13T11:45:11.332Z,10.43
2018-09-13T11:47:15.197Z,13.03
2018-09-13T11:49:19.189Z,11.03
2018-09-13T11:51:23.231Z,11.33
2018-09-13T11:53:27.194Z,11.00
2018-09-13T11:55:31.058Z,11.00
2018-09-13T11:57:34.913Z,11.30
2018-09-13T11:59:39.061Z,10.67
2018-09-13T12:01:42.927Z,10.87
2018-09-13T12:03:48.505Z,9.20
2018-09-13T12:05:52.515Z,9.70
2018-09-13T12:07:56.450Z,8.77
2018-09-13T12:10:00.323Z,9.00
2018-09-13T12:12:04.166Z,8.57
2018-09-13T12:14:08.442Z,9.40
2018-09-13T12:16:12.284Z,9.00
2018-09-13T12:18:16.199Z,9.00
2018-09-13T12:20:20.056Z,10.20
2018-09-13T12:22:23.902Z,10.73
2018-09-13T12:24:28.835Z,10.67
2018-09-13T12:26:32.825Z,10.93
2018-09-13T12:28:37.748Z,10.40
2018-09-13T12:30:41.604Z,8.83
2018-09-13T12:32:45.908Z,10.00
2018-09-13T12:34:49.774Z,9.13
2018-09-13T12:36:53.870Z,11.13
2018-09-13T12:38:57.664Z,9.10
2018-09-13T12:41:01.766Z,9.93
2018-09-13T12:43:05.584Z,10.67
2018-09-13T12:45:10.355Z,9.67
2018-09-13T12:47:14.134Z,9.60
2018-09-13T12:49:18.020Z,9.97
2018-09-13T12:51:21.823Z,9.70
2018-09-13T12:53:26.682Z,10.10
2018-09-13T12:55:35.746Z,9.37
2018-09-13T12:57:39.575Z,10.47
2018-09-13T12:59:43.419Z,10.60
2018-09-13T13:01:47.397Z,9.97
2018-09-13T13:03:51.220Z,9.50
2018-09-13T13:05:55.177Z,10.13
2018-09-13T13:07:58.976Z,10.07
2018-09-13T13:10:02.909Z,10.57
2018-09-13T13:12:06.842Z,8.80
2018-09-13T13:14:10.659Z,9.63
2018-09-13T13:16:14.515Z,9.00
2018-09-13T13:18:18.312Z,9.17
2018-09-13T13:20:22.173Z,8.63
2018-09-13T13:22:26.047Z,7.77
2018-09-13T13:24:29.859Z,9.27
2018-09-13T13:26:34.118Z,9.60
2018-09-13T13:28:37.970Z,9.63
2018-09-13T13:30:41.745Z,9.43
2018-09-13T13:32:45.595Z,10.00
2018-09-13T13:34:49.378Z,10.17
2018-09-13T13:36:53.210Z,9.70
2018-09-13T13:38:57.006Z,9.40
2018-09-13T13:41:01.069Z,9.00
2018-09-13T13:43:04.914Z,8.87
2018-09-13T13:45:08.740Z,8.67
2018-09-13T13:47:13.640Z,11.97
2018-09-13T13:49:17.680Z,8.40
2018-09-13T13:51:21.897Z,9.10
2018-09-13T13:53:25.758Z,10.20
2018-09-13T13:55:29.555Z,9.47
2018-09-13T13:57:33.433Z,10.17
2018-09-13T13:59:37.277Z,9.50
2018-09-13T14:01:41.112Z,9.83
2018-09-13T14:03:45.375Z,9.70
2018-09-13T14:05:49.212Z,9.40
2018-09-13T14:07:53.004Z,9.43
2018-09-13T14:09:56.975Z,10.17
2018-09-13T14:12:00.745Z,10.87
2018-09-13T14:14:04.531Z,9.50
2018-09-13T14:16:08.354Z,8.77
2018-09-13T14:18:12.254Z,10.37
2018-09-13T14:20:16.154Z,9.03
2018-09-13T14:22:20.103Z,10.60
2018-09-13T14:24:23.978Z,10.40
2018-09-13T14:26:27.975Z,9.57
2018-09-13T14:28:31.745Z,10.30
2018-09-13T14:30:35.659Z,9.07
2018-09-13T14:32:39.515Z,9.80
2018-09-13T14:34:43.406Z,10.10
2018-09-13T14:36:47.246Z,8.57
2018-09-13T14:38:51.177Z,11.20
2018-09-13T14:40:55.203Z,10.00
2018-09-13T14:42:59.077Z,10.47
2018-09-13T14:45:02.837Z,9.63
2018-09-13T14:47:07.676Z,9.40
2018-09-13T14:49:11.469Z,10.23
2018-09-13T14:51:15.327Z,9.10
2018-09-13T14:53:19.121Z,9.73
2018-09-13T14:55:22.974Z,11.20
2018-09-13T14:57:26.826Z,9.97
2018-09-13T14:59:30.761Z,9.33
2018-09-13T15:01:34.567Z,10.43
2018-09-13T15:03:39.210Z,9.47
2018-09-13T15:05:43.032Z,9.27
2018-09-13T15:07:47.082Z,10.90
2018-09-13T15:09:50.858Z,10.63
2018-09-13T15:11:54.745Z,10.70
2018-09-13T15:13:58.578Z,11.10
2018-09-13T15:16:02.497Z,10.63
2018-09-13T15:18:06.389Z,9.73
2018-09-13T15:20:10.253Z,10.73
2018-09-13T15:22:14.093Z,11.40
2018-09-13T15:24:17.957Z,10.73
2018-09-13T15:26:21.781Z,11.30
2018-09-13T15:28:25.714Z,12.33
2018-09-13T15:30:29.474Z,10.50
2018-09-13T15:32:33.311Z,11.63
2018-09-13T15:34:37.141Z,11.90
2018-09-13T15:36:41.080Z,12.53
2018-09-13T15:38:45.138Z,12.13
2018-09-13T15:40:48.872Z,11.60
2018-09-13T15:42:53.148Z,13.13
2018-09-13T15:44:57.358Z,13.03
2018-09-13T15:47:01.505Z,13.13
2018-09-13T15:49:05.749Z,14.23
2018-09-13T15:51:09.582Z,12.90
2018-09-13T15:53:13.417Z,13.90
2018-09-13T15:55:17.335Z,14.00
2018-09-13T15:57:21.168Z,13.23
2018-09-13T15:59:25.228Z,14.90
2018-09-13T16:01:29.260Z,15.17
2018-09-13T16:03:33.159Z,14.60
2018-09-13T16:05:37.126Z,15.17
2018-09-13T16:07:41.168Z,16.00
2018-09-13T16:09:44.972Z,15.57
2018-09-13T16:11:48.860Z,16.10
2018-09-13T16:13:52.734Z,14.30
2018-09-13T16:15:57.499Z,15.07
2018-09-13T16:18:03.790Z,15.27
2018-09-13T16:20:07.748Z,16.43
2018-09-13T16:22:11.784Z,13.83
2018-09-13T16:24:16.048Z,15.50
2018-09-13T16:26:19.834Z,13.70
2018-09-13T16:28:23.776Z,15.40
2018-09-13T16:30:27.853Z,14.97
2018-09-13T16:32:32.126Z,15.37
2018-09-13T16:34:35.991Z,16.03
2018-09-13T16:36:47.509Z,13.93
2018-09-13T16:38:56.818Z,13.23
2018-09-13T16:41:08.164Z,14.43
2018-09-13T16:43:14.996Z,14.40
2018-09-13T16:45:26.045Z,13.70
2018-09-13T16:47:35.427Z,12.93
2018-09-13T16:49:40.353Z,13.93
2018-09-13T16:51:44.443Z,14.30
2018-09-13T16:53:48.511Z,14.97
2018-09-13T16:56:08.849Z,14.30
2018-09-13T16:58:13.763Z,13.50
2018-09-13T17:00:19.520Z,14.27
2018-09-13T17:02:24.048Z,14.83
2018-09-13T17:04:28.277Z,15.03
2018-09-13T17:06:32.415Z,14.83
2018-09-13T17:08:36.220Z,15.67
2018-09-13T17:10:52.434Z,15.07
2018-09-13T17:12:56.972Z,13.40
2018-09-13T17:15:01.842Z,14.17
2018-09-13T17:17:06.947Z,15.47
2018-09-13T17:19:12.000Z,13.50
2018-09-13T17:21:16.057Z,12.70
2018-09-13T17:23:20.034Z,13.77
2018-09-13T17:25:24.510Z,14.03
2018-09-13T17:27:28.873Z,13.30
2018-09-13T17:29:32.858Z,12.67
2018-09-13T17:31:36.807Z,13.90
2018-09-13T17:33:40.975Z,13.60
2018-09-13T17:35:45.089Z,12.90
2018-09-13T17:37:48.954Z,13.50
2018-09-13T17:39:52.784Z,13.50
2018-09-13T17:41:56.561Z,14.43
2018-09-13T17:44:00.509Z,13.83
2018-09-13T17:46:04.284Z,14.70
2018-09-13T17:48:08.188Z,14.97
2018-09-13T17:50:12.789Z,15.40
2018-09-13T17:52:16.879Z,19.73
2018-09-13T17:54:20.788Z,21.30
2018-09-13T17:56:25.097Z,18.50
2018-09-13T17:58:31.825Z,23.23
2018-09-13T18:00:35.741Z,20.33
2018-09-13T18:02:40.297Z,23.30
2018-09-13T18:04:44.410Z,23.47
2018-09-13T18:06:48.244Z,22.50
2018-09-13T18:08:52.074Z,24.33
2018-09-13T18:10:56.369Z,23.50
2018-09-13T18:13:00.677Z,26.23
2018-09-13T18:15:04.650Z,23.87
2018-09-13T18:17:08.905Z,24.60
2018-09-13T18:19:12.801Z,25.30
2018-09-13T18:21:17.011Z,24.87
2018-09-13T18:23:20.823Z,24.77
2018-09-13T18:25:26.888Z,25.53
2018-09-13T18:27:31.812Z,26.73
2018-09-13T18:29:38.518Z,26.27
2018-09-13T18:31:42.486Z,25.13
2018-09-13T18:33:46.891Z,24.57
2018-09-13T18:35:50.776Z,25.10
2018-09-13T18:37:55.009Z,23.20
2018-09-13T18:42:29.845Z,24.63
2018-09-13T18:44:47.741Z,25.33
2018-09-13T18:46:52.619Z,23.60
2018-09-13T18:49:14.701Z,25.07
2018-09-13T18:51:18.641Z,26.03
2018-09-13T18:53:23.157Z,27.07
2018-09-13T18:55:27.043Z,24.57
2018-09-13T18:57:30.827Z,25.00
2018-09-13T18:59:34.924Z,23.03
2018-09-13T19:01:38.789Z,24.50
2018-09-13T19:03:42.673Z,23.90
2018-09-13T19:05:46.996Z,24.20
2018-09-13T19:07:51.166Z,22.30
2018-09-13T19:09:56.617Z,24.00
2018-09-13T19:12:02.537Z,24.57
2018-09-13T19:14:06.824Z,25.50
2018-09-13T19:16:12.060Z,24.57
2018-09-13T19:18:16.030Z,23.07
2018-09-13T19:20:20.214Z,23.10
2018-09-13T19:22:24.064Z,22.73
2018-09-13T19:24:56.276Z,21.00
2018-09-13T19:27:36.220Z,22.80
2018-09-13T19:30:04.606Z,23.03
2018-09-13T19:32:09.977Z,23.07
2018-09-13T19:34:14.588Z,22.63
2018-09-13T19:36:18.457Z,22.70
2018-09-13T19:38:22.204Z,25.20
2018-09-13T19:40:27.513Z,24.20
2018-09-13T19:42:31.427Z,22.43
2018-09-13T19:44:37.362Z,23.37
2018-09-13T19:46:41.565Z,22.07
2018-09-13T19:48:49.588Z,22.73
2018-09-13T19:50:54.728Z,23.77
2018-09-13T19:52:58.820Z,21.97
2018-09-13T19:55:08.812Z,24.10
2018-09-13T19:57:14.986Z,24.70
2018-09-13T19:59:42.666Z,25.50
2018-09-13T20:01:49.332Z,23.30
2018-09-13T20:03:57.719Z,23.63
2018-09-13T20:06:15.542Z,23.00
2018-09-13T20:08:19.332Z,24.43
2018-09-13T20:10:23.213Z,24.30
2018-09-13T20:12:27.067Z,22.23
2018-09-13T20:14:31.010Z,24.37
2018-09-13T20:16:34.875Z,21.77
2018-09-13T20:18:38.774Z,24.17
2018-09-13T20:20:43.078Z,23.60
2018-09-13T20:22:46.958Z,22.87
2018-09-13T20:24:50.959Z,24.27
2018-09-13T20:26:54.798Z,21.97
2018-09-13T20:29:03.862Z,24.60
2018-09-13T20:31:07.844Z,24.37
2018-09-13T20:33:11.879Z,25.17
2018-09-13T20:35:15.783Z,25.40
2018-09-13T20:37:19.686Z,25.00
2018-09-13T20:39:23.599Z,26.07
2018-09-13T20:41:27.404Z,26.60
2018-09-13T20:43:31.235Z,26.00
2018-09-13T20:45:35.187Z,25.50
2018-09-13T20:47:39.150Z,25.70
2018-09-13T20:49:48.120Z,27.10
2018-09-13T20:51:52.135Z,24.30
2018-09-13T20:53:59.479Z,25.10
2018-09-13T20:56:03.409Z,27.00
2018-09-13T20:58:07.772Z,28.00
2018-09-13T21:00:17.167Z,25.13
2018-09-13T21:02:25.650Z,26.77
2018-09-13T21:04:30.111Z,26.50
2018-09-13T21:06:35.692Z,28.00
2018-09-13T21:08:42.487Z,27.50
2018-09-13T21:10:48.782Z,29.80
2018-09-13T21:12:53.398Z,28.97
2018-09-13T21:14:59.036Z,28.50
2018-09-13T21:17:03.037Z,29.07
2018-09-13T21:19:06.846Z,28.40
2018-09-13T21:21:11.701Z,31.30
2018-09-13T21:23:15.627Z,28.57
2018-09-13T21:25:21.852Z,29.17
2018-09-13T21:27:26.245Z,28.50
2018-09-13T21:29:30.157Z,28.00
2018-09-13T21:31:36.315Z,29.40
2018-09-13T21:33:41.888Z,28.00
2018-09-13T21:35:45.972Z,29.67
2018-09-13T21:37:52.259Z,28.97
2018-09-13T21:40:02.054Z,28.33
2018-09-13T21:42:06.017Z,27.70
2018-09-13T21:44:10.843Z,28.53
2018-09-13T21:46:14.724Z,28.10
2018-09-13T21:48:19.745Z,30.23
2018-09-13T21:50:24.672Z,28.00
2018-09-13T21:52:30.918Z,28.60
2018-09-13T21:54:34.701Z,28.90
2018-09-13T21:56:40.230Z,29.20
2018-09-13T21:58:44.110Z,29.90
2018-09-13T22:00:49.341Z,29.17
2018-09-13T22:02:54.152Z,28.33
2018-09-13T22:05:00.841Z,27.17
2018-09-13T22:07:05.042Z,27.00
2018-09-13T22:09:10.132Z,30.10
2018-09-13T22:11:15.426Z,28.13
2018-09-13T22:13:20.444Z,28.07
2018-09-13T22:15:24.835Z,29.50
2018-09-13T22:17:30.044Z,26.20
2018-09-13T22:19:34.367Z,29.60
2018-09-13T22:21:39.513Z,28.40
2018-09-13T22:23:43.626Z,27.87
2018-09-13T22:25:48.022Z,29.47
2018-09-13T22:27:52.049Z,27.77
2018-09-13T22:29:56.073Z,29.23
2018-09-13T22:32:00.444Z,28.57
2018-09-13T22:34:10.395Z,27.53
2018-09-13T22:36:14.355Z,27.50
2018-09-13T22:38:18.424Z,29.30
2018-09-13T22:40:23.498Z,28.33
2018-09-13T22:42:36.704Z,25.73
2018-09-13T22:44:41.653Z,26.60
2018-09-13T22:46:46.302Z,27.73
2018-09-13T22:48:50.389Z,26.80
2018-09-13T22:50:54.175Z,28.07
2018-09-13T22:52:58.436Z,27.50
2018-09-13T22:55:02.556Z,26.77
2018-09-13T22:57:08.751Z,27.53
2018-09-13T22:59:15.508Z,26.73
2018-09-13T23:01:19.672Z,27.50
2018-09-13T23:03:23.559Z,25.67
2018-09-13T23:05:27.884Z,28.60
2018-09-13T23:07:32.539Z,28.63
2018-09-13T23:09:36.406Z,27.27
2018-09-13T23:11:40.773Z,26.90
2018-09-13T23:13:47.585Z,28.30
2018-09-13T23:15:51.959Z,27.87
2018-09-13T23:17:56.179Z,26.13
2018-09-13T23:20:00.239Z,27.13
2018-09-13T23:22:04.888Z,25.90
2018-09-13T23:24:08.671Z,25.10
2018-09-13T23:26:19.393Z,26.07
2018-09-13T23:28:23.278Z,27.50
2018-09-13T23:30:27.536Z,24.87
2018-09-13T23:32:31.981Z,23.50
2018-09-13T23:34:38.413Z,23.20
2018-09-13T23:36:45.572Z,28.80
2018-09-13T23:38:49.655Z,27.50
2018-09-13T23:40:53.585Z,26.53
2018-09-13T23:42:57.864Z,24.40
2018-09-13T23:45:01.721Z,24.67
2018-09-13T23:47:05.745Z,23.77
2018-09-13T23:49:09.639Z,24.90
2018-09-13T23:51:13.570Z,25.43
2018-09-13T23:53:17.418Z,24.17
2018-09-13T23:55:21.357Z,25.20
2018-09-13T23:57:25.396Z,25.10
2018-09-13T23:59:31.921Z,24.00
